createdAt,value
2023-01-30T00:02:22.811Z,-1.95
2023-01-30T00:04:49.205Z,-1.93
2023-01-30T00:07:15.605Z,-1.85
2023-01-30T00:09:41.971Z,-1.83
2023-01-30T00:12:08.394Z,-1.84
2023-01-30T00:14:34.817Z,-1.82
2023-01-30T00:17:01.234Z,-1.79
2023-01-30T00:19:27.662Z,-1.79
2023-01-30T00:21:54.008Z,-1.76
2023-01-30T00:24:20.516Z,-1.82
2023-01-30T00:26:46.976Z,-1.78
2023-01-30T00:29:13.495Z,-1.79
2023-01-30T00:31:39.899Z,-1.76
2023-01-30T00:34:06.570Z,-1.74
2023-01-30T00:36:33.007Z,-1.75
2023-01-30T00:38:59.389Z,-1.77
2023-01-30T00:41:45.936Z,-1.77
2023-01-30T00:44:30.817Z,-1.75
2023-01-30T00:47:05.971Z,-1.73
2023-01-30T00:49:32.897Z,-1.73
2023-01-30T00:51:59.407Z,-1.72
2023-01-30T00:54:25.890Z,-1.71
2023-01-30T00:56:52.413Z,-1.66
2023-01-30T00:59:18.835Z,-1.62
2023-01-30T01:01:45.411Z,-1.62
2023-01-30T01:04:11.951Z,-1.61
2023-01-30T01:06:38.787Z,-1.57
2023-01-30T01:09:05.514Z,-1.54
2023-01-30T01:11:32.017Z,-1.52
2023-01-30T01:13:59.977Z,-1.51
2023-01-30T01:16:27.668Z,-1.47
2023-01-30T01:18:54.586Z,-1.43
2023-01-30T01:21:21.616Z,-1.46
2023-01-30T01:23:55.152Z,-1.50
2023-01-30T01:26:21.644Z,-1.46
2023-01-30T01:28:48.187Z,-1.48
2023-01-30T01:31:15.891Z,-1.44
2023-01-30T01:33:42.373Z,-1.45
2023-01-30T01:36:08.757Z,-1.43
2023-01-30T01:38:35.244Z,-1.44
2023-01-30T01:41:06.475Z,-1.41
2023-01-30T01:43:34.797Z,-1.39
2023-01-30T01:46:08.067Z,-1.38
2023-01-30T01:48:55.704Z,-1.42
2023-01-30T01:51:31.559Z,-1.36
2023-01-30T01:54:08.449Z,-1.37
2023-01-30T01:56:36.088Z,-1.38
2023-01-30T01:59:05.191Z,-1.35
2023-01-30T02:01:31.673Z,-1.35
2023-01-30T02:04:01.848Z,-1.31
2023-01-30T02:06:29.239Z,-1.32
2023-01-30T02:08:58.238Z,-1.29
2023-01-30T02:11:32.416Z,-1.23
2023-01-30T02:14:00.374Z,-1.21
2023-01-30T02:16:26.709Z,-1.19
2023-01-30T02:18:53.081Z,-1.20
2023-01-30T02:21:19.505Z,-1.15
2023-01-30T02:23:45.824Z,-1.17
2023-01-30T02:26:22.173Z,-1.14
2023-01-30T02:29:00.426Z,-1.12
2023-01-30T02:31:26.842Z,-1.14
2023-01-30T02:33:56.371Z,-1.12
2023-01-30T02:36:41.234Z,-1.12
2023-01-30T02:39:15.104Z,-1.12
2023-01-30T02:41:48.374Z,-1.05
2023-01-30T02:44:33.311Z,-1.00
2023-01-30T02:47:06.380Z,-0.98
2023-01-30T02:49:36.711Z,-0.93
2023-01-30T02:52:03.540Z,-0.88
2023-01-30T02:54:29.927Z,-0.89
2023-01-30T02:56:59.783Z,-0.85
2023-01-30T02:59:26.089Z,-0.84
2023-01-30T03:02:07.873Z,-0.75
2023-01-30T03:04:35.734Z,-0.76
2023-01-30T03:07:07.893Z,-0.77
2023-01-30T03:09:44.061Z,-0.74
2023-01-30T03:12:13.780Z,-0.69
2023-01-30T03:14:47.690Z,-0.63
2023-01-30T03:17:14.919Z,-0.59
2023-01-30T03:19:41.869Z,-0.54
2023-01-30T03:22:08.636Z,-0.56
2023-01-30T03:24:35.127Z,-0.51
2023-01-30T03:27:04.372Z,-0.49
2023-01-30T03:29:30.707Z,-0.45
2023-01-30T03:31:57.092Z,-0.46
2023-01-30T03:34:23.495Z,-0.35
2023-01-30T03:36:50.004Z,-0.35
2023-01-30T03:39:16.532Z,-0.25
2023-01-30T03:41:42.880Z,-0.23
2023-01-30T03:44:09.317Z,-0.17
2023-01-30T03:46:35.649Z,-0.16
2023-01-30T03:49:01.983Z,-0.11
2023-01-30T03:51:28.375Z,-0.06
2023-01-30T03:53:54.714Z,-0.04
2023-01-30T03:56:21.062Z,-0.03
2023-01-30T03:58:47.578Z,-0.04
2023-01-30T04:01:13.937Z,-0.02
2023-01-30T04:03:40.344Z,0.06
2023-01-30T04:06:06.826Z,0.07
2023-01-30T04:08:33.174Z,0.10
2023-01-30T04:11:02.652Z,0.14
2023-01-30T04:13:28.977Z,0.17
2023-01-30T04:16:13.593Z,0.18
2023-01-30T04:18:40.028Z,0.20
2023-01-30T04:21:06.364Z,0.22
2023-01-30T04:23:32.710Z,0.20
2023-01-30T04:25:59.087Z,0.27
2023-01-30T04:28:25.441Z,0.30
2023-01-30T04:30:54.703Z,0.32
2023-01-30T04:33:21.204Z,0.31
2023-01-30T04:35:57.724Z,0.28
2023-01-30T04:38:24.622Z,0.35
2023-01-30T04:40:54.759Z,0.40
2023-01-30T04:43:22.153Z,0.42
2023-01-30T04:45:49.494Z,0.46
2023-01-30T04:48:16.866Z,0.47
2023-01-30T04:50:44.009Z,0.52
2023-01-30T04:53:10.953Z,0.56
2023-01-30T04:55:37.546Z,0.59
2023-01-30T04:58:03.872Z,0.58
2023-01-30T05:00:30.532Z,0.57
2023-01-30T05:02:56.949Z,0.62
2023-01-30T05:05:23.550Z,0.60
2023-01-30T05:07:50.106Z,0.68
2023-01-30T05:10:18.193Z,0.76
2023-01-30T05:12:44.982Z,0.79
2023-01-30T05:15:11.807Z,0.77
2023-01-30T05:17:38.660Z,0.78
2023-01-30T05:20:05.913Z,0.87
2023-01-30T05:22:32.328Z,0.86
2023-01-30T05:24:58.816Z,0.91
2023-01-30T05:27:25.133Z,0.93
2023-01-30T05:29:51.528Z,0.95
2023-01-30T05:32:18.935Z,0.90
2023-01-30T05:34:45.591Z,0.90
2023-01-30T05:37:12.529Z,0.97
2023-01-30T05:39:38.972Z,0.93
2023-01-30T05:42:05.474Z,0.94
2023-01-30T05:44:31.882Z,0.90
2023-01-30T05:46:58.234Z,0.96
2023-01-30T05:49:24.697Z,0.94
2023-01-30T05:51:51.648Z,0.96
2023-01-30T05:54:18.108Z,0.97
2023-01-30T05:56:44.494Z,0.96
2023-01-30T05:59:11.672Z,0.99
2023-01-30T06:01:38.002Z,1.01
2023-01-30T06:04:04.657Z,1.09
2023-01-30T06:06:31.025Z,1.17
2023-01-30T06:08:57.398Z,1.16
2023-01-30T06:11:24.200Z,1.14
2023-01-30T06:13:50.535Z,1.12
2023-01-30T06:16:17.759Z,1.12
2023-01-30T06:18:47.053Z,1.07
2023-01-30T06:21:15.225Z,1.07
2023-01-30T06:23:41.913Z,1.12
2023-01-30T06:26:09.384Z,1.13
2023-01-30T06:28:36.114Z,1.13
2023-01-30T06:31:02.597Z,1.15
2023-01-30T06:33:29.026Z,1.16
2023-01-30T06:35:55.378Z,1.17
2023-01-30T06:38:21.745Z,1.20
2023-01-30T06:40:49.467Z,1.28
2023-01-30T06:43:16.344Z,1.28
2023-01-30T06:45:42.937Z,1.28
2023-01-30T06:48:09.556Z,1.27
2023-01-30T06:50:35.965Z,1.21
2023-01-30T06:53:03.274Z,1.12
2023-01-30T06:55:29.668Z,1.05
2023-01-30T06:58:09.448Z,0.96
2023-01-30T07:00:36.521Z,0.89
2023-01-30T07:03:02.875Z,0.85
2023-01-30T07:05:29.301Z,0.83
2023-01-30T07:07:55.845Z,0.78
2023-01-30T07:10:22.818Z,0.75
2023-01-30T07:12:49.217Z,0.71
2023-01-30T07:15:15.756Z,0.69
2023-01-30T07:17:42.206Z,0.68
2023-01-30T07:20:09.756Z,0.74
2023-01-30T07:22:36.124Z,0.78
2023-01-30T07:25:02.543Z,0.92
2023-01-30T07:27:28.940Z,0.96
2023-01-30T07:29:55.295Z,1.02
2023-01-30T07:32:21.805Z,1.08
2023-01-30T07:34:48.573Z,1.15
2023-01-30T07:37:14.907Z,1.20
2023-01-30T07:39:41.561Z,1.28
2023-01-30T07:42:08.082Z,1.36
2023-01-30T07:44:34.414Z,1.35
2023-01-30T07:47:01.020Z,1.37
2023-01-30T07:49:27.375Z,1.40
2023-01-30T07:51:53.713Z,1.45
2023-01-30T07:54:20.070Z,1.42
2023-01-30T07:56:46.466Z,1.43
2023-01-30T07:59:12.819Z,1.40
2023-01-30T08:01:39.231Z,1.41
2023-01-30T08:04:05.615Z,1.42
2023-01-30T08:06:32.320Z,1.42
2023-01-30T08:08:58.655Z,1.42
2023-01-30T08:11:25.095Z,1.43
2023-01-30T08:13:51.434Z,1.43
2023-01-30T08:16:17.910Z,1.40
2023-01-30T08:18:44.383Z,1.43
2023-01-30T08:21:11.341Z,1.45
2023-01-30T08:23:37.689Z,1.46
2023-01-30T08:26:04.549Z,1.41
2023-01-30T08:28:30.929Z,1.41
2023-01-30T08:30:57.417Z,1.40
2023-01-30T08:33:24.509Z,1.38
2023-01-30T08:35:51.222Z,1.38
2023-01-30T08:38:17.558Z,1.37
2023-01-30T08:40:43.909Z,1.36
2023-01-30T08:43:10.647Z,1.35
2023-01-30T08:45:37.068Z,1.33
2023-01-30T08:48:04.975Z,1.33
2023-01-30T08:50:31.742Z,1.29
2023-01-30T08:52:58.199Z,1.28
2023-01-30T08:55:24.744Z,1.30
2023-01-30T08:57:51.247Z,1.38
2023-01-30T09:00:18.017Z,1.44
2023-01-30T09:02:47.565Z,1.49
2023-01-30T09:05:13.949Z,1.55
2023-01-30T09:07:40.295Z,1.61
2023-01-30T09:10:06.772Z,1.65
2023-01-30T09:12:33.371Z,1.75
2023-01-30T09:15:00.487Z,1.82
2023-01-30T09:17:26.869Z,1.90
2023-01-30T09:19:53.223Z,1.96
2023-01-30T09:22:19.762Z,2.01
2023-01-30T09:24:46.092Z,2.03
2023-01-30T09:27:12.522Z,2.05
2023-01-30T09:29:38.828Z,2.05
2023-01-30T09:32:05.174Z,2.06
2023-01-30T09:34:31.534Z,2.03
2023-01-30T09:37:00.271Z,2.03
2023-01-30T09:39:27.074Z,2.03
2023-01-30T09:42:15.050Z,2.05
2023-01-30T09:44:55.609Z,2.08
2023-01-30T09:47:24.922Z,2.11
2023-01-30T09:50:00.620Z,2.16
2023-01-30T09:52:51.190Z,2.19
2023-01-30T09:55:37.833Z,2.22
2023-01-30T09:58:04.430Z,2.22
2023-01-30T10:00:44.520Z,2.25
2023-01-30T10:03:11.084Z,2.24
2023-01-30T10:05:51.307Z,2.29
2023-01-30T10:08:43.083Z,2.36
2023-01-30T10:11:10.626Z,2.53
2023-01-30T10:13:43.012Z,2.62
2023-01-30T10:16:12.428Z,2.62
2023-01-30T10:18:47.950Z,2.65
2023-01-30T10:21:31.078Z,2.70
2023-01-30T10:24:06.535Z,2.71
2023-01-30T10:26:33.575Z,2.74
2023-01-30T10:29:08.577Z,2.88
2023-01-30T10:31:40.277Z,2.91
2023-01-30T10:34:10.037Z,2.88
2023-01-30T10:36:36.336Z,2.92
2023-01-30T10:39:04.389Z,2.94
2023-01-30T10:49:50.344Z,2.79
2023-01-30T10:52:27.200Z,2.83
2023-01-30T10:55:00.315Z,2.81
2023-01-30T10:57:35.683Z,2.78
2023-01-30T11:00:05.573Z,2.77
2023-01-30T11:02:47.890Z,2.76
2023-01-30T11:05:18.489Z,2.77
2023-01-30T11:07:47.171Z,2.72
2023-01-30T11:10:18.376Z,2.60
2023-01-30T11:12:44.952Z,2.52
2023-01-30T11:15:11.917Z,2.40
2023-01-30T11:17:42.920Z,2.33
2023-01-30T11:20:17.344Z,2.29
2023-01-30T11:22:50.010Z,2.28
2023-01-30T11:25:19.628Z,2.32
2023-01-30T11:27:52.573Z,2.34
2023-01-30T11:30:20.340Z,2.35
2023-01-30T11:32:48.999Z,2.35
2023-01-30T11:35:15.333Z,2.35
2023-01-30T11:37:43.115Z,2.37
2023-01-30T11:40:28.085Z,2.35
2023-01-30T11:43:11.664Z,2.25
2023-01-30T11:45:39.456Z,2.17
2023-01-30T11:48:23.483Z,2.10
2023-01-30T11:51:02.249Z,2.03
2023-01-30T11:53:31.849Z,2.02
2023-01-30T11:56:05.447Z,2.03
2023-01-30T11:58:35.054Z,2.09
2023-01-30T12:01:02.136Z,2.15
2023-01-30T12:03:30.074Z,2.13
2023-01-30T12:05:58.157Z,2.10
2023-01-30T12:08:40.481Z,2.16
2023-01-30T12:11:23.685Z,2.18
2023-01-30T12:13:50.833Z,2.22
2023-01-30T12:16:35.847Z,2.21
2023-01-30T12:19:07.254Z,2.19
2023-01-30T12:21:39.771Z,2.21
2023-01-30T12:24:11.889Z,2.26
2023-01-30T12:26:45.620Z,2.30
2023-01-30T12:29:47.522Z,2.35
2023-01-30T12:32:19.785Z,2.37
2023-01-30T12:34:47.917Z,2.42
2023-01-30T12:37:14.280Z,2.44
2023-01-30T12:39:53.983Z,2.39
2023-01-30T12:42:39.735Z,2.36
2023-01-30T12:45:14.145Z,2.45
2023-01-30T12:47:55.878Z,2.53
2023-01-30T12:50:28.235Z,2.59
2023-01-30T12:52:57.665Z,2.60
2023-01-30T12:55:30.226Z,2.63
2023-01-30T12:57:56.661Z,2.66
2023-01-30T13:00:41.724Z,2.68
2023-01-30T13:03:30.480Z,2.72
2023-01-30T13:06:10.059Z,2.71
2023-01-30T13:08:36.447Z,2.78
2023-01-30T13:11:20.955Z,2.76
2023-01-30T13:13:48.542Z,2.74
2023-01-30T13:16:26.694Z,2.73
2023-01-30T13:19:01.507Z,2.73
2023-01-30T13:21:42.995Z,2.71
2023-01-30T13:24:32.471Z,2.63
2023-01-30T13:27:00.439Z,2.66
2023-01-30T13:29:35.578Z,2.62
2023-01-30T13:32:03.910Z,2.69
2023-01-30T13:34:38.781Z,2.74
2023-01-30T13:37:16.105Z,2.79
2023-01-30T13:39:52.617Z,2.80
2023-01-30T13:42:25.212Z,2.83
2023-01-30T13:44:53.071Z,2.89
2023-01-30T13:47:19.501Z,2.95
2023-01-30T13:49:56.866Z,3.03
2023-01-30T13:52:38.401Z,3.14
2023-01-30T13:55:31.152Z,3.26
2023-01-30T13:58:25.133Z,3.26
2023-01-30T14:00:53.206Z,3.25
2023-01-30T14:03:24.435Z,3.24
2023-01-30T14:05:50.767Z,3.12
2023-01-30T14:08:21.607Z,3.13
2023-01-30T14:10:48.702Z,3.10
2023-01-30T14:13:15.936Z,3.13
2023-01-30T14:15:53.125Z,3.11
2023-01-30T14:18:23.353Z,3.10
2023-01-30T14:20:51.274Z,3.11
2023-01-30T14:23:34.143Z,3.10
2023-01-30T14:26:01.176Z,3.10
2023-01-30T14:28:30.661Z,3.03
2023-01-30T14:31:01.295Z,3.02
2023-01-30T14:33:31.926Z,3.01
2023-01-30T14:35:58.288Z,2.95
2023-01-30T14:38:25.660Z,2.91
2023-01-30T14:41:01.039Z,2.90
2023-01-30T14:43:33.331Z,2.87
2023-01-30T14:46:20.133Z,2.83
2023-01-30T14:49:00.986Z,2.75
2023-01-30T14:51:27.353Z,2.77
2023-01-30T14:54:02.001Z,2.77
2023-01-30T14:56:34.243Z,2.69
2023-01-30T14:59:02.798Z,2.70
2023-01-30T15:01:49.117Z,2.67
2023-01-30T15:04:16.294Z,2.68
2023-01-30T15:06:43.657Z,2.74
2023-01-30T15:09:12.240Z,2.69
2023-01-30T15:11:39.396Z,2.70
2023-01-30T15:14:11.954Z,2.62
2023-01-30T15:16:38.396Z,2.55
2023-01-30T15:19:12.383Z,2.52
2023-01-30T15:21:54.040Z,2.47
2023-01-30T15:24:39.156Z,2.50
2023-01-30T15:27:17.881Z,2.50
2023-01-30T15:30:06.295Z,2.49
2023-01-30T15:32:33.352Z,2.49
2023-01-30T15:35:01.630Z,2.54
2023-01-30T15:37:32.842Z,2.52
2023-01-30T15:40:21.053Z,2.53
2023-01-30T15:42:53.267Z,2.51
2023-01-30T15:45:34.565Z,2.54
2023-01-30T15:48:13.009Z,2.47
2023-01-30T15:50:39.528Z,2.44
2023-01-30T15:53:12.529Z,2.42
2023-01-30T15:55:38.916Z,2.41
2023-01-30T15:58:09.426Z,2.36
2023-01-30T16:00:45.795Z,2.28
2023-01-30T16:03:14.394Z,2.24
2023-01-30T16:05:48.042Z,2.19
2023-01-30T16:08:34.246Z,2.12
2023-01-30T16:11:00.844Z,2.07
2023-01-30T16:13:27.925Z,2.05
2023-01-30T16:16:12.552Z,2.06
2023-01-30T16:18:42.426Z,2.06
2023-01-30T16:21:19.751Z,2.06
2023-01-30T16:23:55.462Z,2.04
2023-01-30T16:26:22.567Z,2.06
2023-01-30T16:28:59.352Z,2.07
2023-01-30T16:31:27.460Z,2.08
2023-01-30T16:33:53.932Z,2.08
2023-01-30T16:36:20.272Z,2.09
2023-01-30T16:38:47.419Z,2.13
2023-01-30T16:41:32.884Z,2.19
2023-01-30T16:44:18.337Z,2.22
2023-01-30T16:46:46.208Z,2.24
2023-01-30T16:49:21.386Z,2.28
2023-01-30T16:51:48.902Z,2.30
2023-01-30T16:54:19.314Z,2.36
2023-01-30T16:56:48.003Z,2.38
2023-01-30T16:59:19.583Z,2.46
2023-01-30T17:01:46.210Z,2.46
2023-01-30T17:04:19.038Z,2.47
2023-01-30T17:06:48.811Z,2.48
2023-01-30T17:09:34.145Z,2.49
2023-01-30T17:12:00.939Z,2.51
2023-01-30T17:14:30.574Z,2.58
2023-01-30T17:17:00.686Z,2.54
2023-01-30T17:19:27.286Z,2.50
2023-01-30T17:21:54.619Z,2.51
2023-01-30T17:24:22.142Z,2.46
2023-01-30T17:26:51.088Z,2.42
2023-01-30T17:29:23.861Z,2.40
2023-01-30T17:32:01.140Z,2.44
2023-01-30T17:34:28.886Z,2.46
2023-01-30T17:36:56.015Z,2.49
2023-01-30T17:39:23.268Z,2.43
2023-01-30T17:41:49.752Z,2.40
2023-01-30T17:44:16.291Z,2.29
2023-01-30T17:46:46.617Z,2.30
2023-01-30T17:49:17.852Z,2.27
2023-01-30T17:51:44.709Z,2.23
2023-01-30T17:54:11.827Z,2.25
2023-01-30T17:56:39.318Z,2.26
2023-01-30T17:59:06.770Z,2.34
2023-01-30T18:01:33.544Z,2.31
2023-01-30T18:04:00.029Z,2.30
2023-01-30T18:06:27.234Z,2.29
2023-01-30T18:08:53.709Z,2.28
2023-01-30T18:11:21.501Z,2.37
2023-01-30T18:13:49.145Z,2.42
2023-01-30T18:16:17.467Z,2.40
2023-01-30T18:18:43.922Z,2.43
2023-01-30T18:21:10.369Z,2.43
2023-01-30T18:23:37.372Z,2.52
2023-01-30T18:26:04.578Z,2.56
2023-01-30T18:28:31.064Z,2.58
2023-01-30T18:30:57.578Z,2.62
2023-01-30T18:33:24.219Z,2.63
2023-01-30T18:35:50.655Z,2.71
2023-01-30T18:38:17.063Z,2.76
2023-01-30T18:40:43.444Z,2.81
2023-01-30T18:43:09.925Z,2.80
2023-01-30T18:45:36.403Z,2.85
2023-01-30T18:48:03.014Z,2.92
2023-01-30T18:50:29.415Z,2.91
2023-01-30T18:52:55.919Z,2.93
2023-01-30T18:55:25.236Z,3.02
2023-01-30T18:57:52.103Z,3.10
2023-01-30T19:00:21.355Z,3.09
2023-01-30T19:02:51.894Z,3.08
2023-01-30T19:05:18.388Z,3.04
2023-01-30T19:07:45.080Z,3.06
2023-01-30T19:10:11.667Z,3.02
2023-01-30T19:12:56.541Z,3.06
2023-01-30T19:15:23.109Z,3.09
2023-01-30T19:17:49.655Z,3.09
2023-01-30T19:20:16.502Z,2.98
2023-01-30T19:22:43.029Z,2.99
2023-01-30T19:25:09.595Z,3.05
2023-01-30T19:27:37.303Z,3.03
2023-01-30T19:30:04.219Z,3.02
2023-01-30T19:32:30.733Z,2.94
2023-01-30T19:34:57.718Z,2.95
2023-01-30T19:37:24.253Z,2.93
2023-01-30T19:39:50.722Z,2.87
2023-01-30T19:42:17.332Z,2.91
2023-01-30T19:44:43.690Z,3.00
2023-01-30T19:47:10.104Z,2.95
2023-01-30T19:49:37.541Z,2.97
2023-01-30T19:52:04.019Z,3.02
2023-01-30T19:54:31.353Z,3.06
2023-01-30T19:57:00.060Z,3.05
2023-01-30T19:59:26.554Z,3.01
2023-01-30T20:01:52.991Z,3.00
2023-01-30T20:04:19.484Z,3.02
2023-01-30T20:06:46.202Z,3.01
2023-01-30T20:09:12.737Z,3.02
2023-01-30T20:11:40.243Z,3.03
2023-01-30T20:14:07.239Z,3.00
2023-01-30T20:16:35.645Z,3.03
2023-01-30T20:19:03.866Z,3.06
2023-01-30T20:21:30.647Z,3.07
2023-01-30T20:23:57.647Z,3.06
2023-01-30T20:26:25.801Z,3.05
2023-01-30T20:28:54.560Z,3.06
2023-01-30T20:31:22.669Z,3.04
2023-01-30T20:33:49.232Z,3.05
2023-01-30T20:36:18.599Z,3.03
2023-01-30T20:38:46.080Z,2.97
2023-01-30T20:41:14.848Z,3.03
2023-01-30T20:43:42.205Z,3.06
2023-01-30T20:46:08.593Z,3.07
2023-01-30T20:48:35.874Z,3.06
2023-01-30T20:51:12.717Z,3.02
2023-01-30T20:53:39.663Z,3.01
2023-01-30T20:56:06.743Z,3.00
2023-01-30T20:58:33.287Z,2.96
2023-01-30T21:01:07.036Z,2.87
2023-01-30T21:03:33.694Z,2.91
2023-01-30T21:06:01.441Z,2.84
2023-01-30T21:08:28.073Z,2.81
2023-01-30T21:10:55.444Z,2.77
2023-01-30T21:13:22.391Z,2.81
2023-01-30T21:15:48.880Z,2.77
2023-01-30T21:18:15.358Z,2.74
2023-01-30T21:20:48.162Z,2.78
2023-01-30T21:23:14.727Z,2.82
2023-01-30T21:25:41.184Z,2.81
2023-01-30T21:28:07.665Z,2.74
2023-01-30T21:30:35.469Z,2.79
2023-01-30T21:33:02.023Z,2.77
2023-01-30T21:35:28.441Z,2.81
2023-01-30T21:38:13.322Z,2.86
2023-01-30T21:40:58.811Z,2.87
2023-01-30T21:43:25.253Z,2.92
2023-01-30T21:45:57.007Z,2.93
2023-01-30T21:48:23.563Z,2.96
2023-01-30T21:50:50.095Z,2.91
2023-01-30T21:53:16.642Z,2.90
2023-01-30T21:55:43.296Z,2.76
2023-01-30T21:58:09.877Z,2.63
2023-01-30T22:00:36.818Z,2.53
2023-01-30T22:03:03.422Z,2.50
2023-01-30T22:05:36.510Z,2.49
2023-01-30T22:08:03.396Z,2.53
2023-01-30T22:10:29.963Z,2.52
2023-01-30T22:12:56.412Z,2.50
2023-01-30T22:15:22.807Z,2.58
2023-01-30T22:17:49.849Z,2.61
2023-01-30T22:20:16.412Z,2.66
2023-01-30T22:22:43.012Z,2.60
2023-01-30T22:25:09.688Z,2.60
2023-01-30T22:27:36.235Z,2.56
2023-01-30T22:30:02.728Z,2.56
2023-01-30T22:32:29.308Z,2.49
2023-01-30T22:34:55.743Z,2.41
2023-01-30T22:37:22.234Z,2.37
2023-01-30T22:39:48.651Z,2.37
2023-01-30T22:42:25.041Z,2.37
2023-01-30T22:44:51.395Z,2.37
2023-01-30T22:47:17.800Z,2.35
2023-01-30T22:49:44.175Z,2.31
2023-01-30T22:52:10.537Z,2.28
2023-01-30T22:54:37.230Z,2.23
2023-01-30T22:57:03.654Z,2.24
2023-01-30T22:59:30.020Z,2.17
2023-01-30T23:01:56.401Z,2.16
2023-01-30T23:04:23.708Z,2.13
2023-01-30T23:06:51.453Z,2.12
2023-01-30T23:09:19.478Z,2.10
2023-01-30T23:12:10.311Z,2.08
2023-01-30T23:14:37.938Z,2.12
2023-01-30T23:17:24.521Z,2.13
2023-01-30T23:19:50.914Z,2.19
2023-01-30T23:22:17.797Z,2.28
2023-01-30T23:24:44.224Z,2.29
2023-01-30T23:27:10.796Z,2.30
2023-01-30T23:29:37.951Z,2.33
2023-01-30T23:32:04.469Z,2.30
2023-01-30T23:34:30.918Z,2.40
2023-01-30T23:36:57.285Z,2.40
2023-01-30T23:39:23.782Z,2.43
2023-01-30T23:41:51.465Z,2.38
2023-01-30T23:44:17.837Z,2.42
2023-01-30T23:46:44.315Z,2.42
2023-01-30T23:49:12.190Z,2.34
2023-01-30T23:51:39.979Z,2.32
2023-01-30T23:54:06.817Z,2.29
2023-01-30T23:56:35.551Z,2.23
2023-01-30T23:59:02.105Z,2.22
